Time;durP1;ratioP1;P1;durP2;ratioP2;P2;SDS_P1;SDS_P2;PMS_P1;PMS_P2;Temp;Humidity;BMP_temperature;BMP_pressure;BME280_temperature;BME280_humidity;BME280_pressure;Samples;Min_cycle;Max_cycle;Signal;HPM_P1;HPM_P2
2024/04/14 00:00:32;;;;;;;8.90;3.63;;;12.70;99.90;14.50;97541.00;;;;5449174;26;20486;-81
2024/04/14 00:03:20;;;;;;;8.33;3.97;;;12.50;99.90;14.20;97540.00;;;;5446576;26;20319;-82
2024/04/14 00:06:11;;;;;;;7.67;7.03;;;12.30;99.90;14.30;97538.00;;;;5444299;26;20312;-82
2024/04/14 00:08:59;;;;;;;9.50;5.17;;;12.20;99.90;14.80;97543.00;;;;5439197;26;20312;-81
2024/04/14 00:11:52;;;;;;;21.33;10.73;;;12.10;99.90;14.70;97532.00;;;;5446471;26;20252;-80
2024/04/14 00:14:40;;;;;;;16.50;7.50;;;12.20;99.90;14.40;97522.00;;;;5447791;26;21281;-82
2024/04/14 00:17:31;;;;;;;8.77;4.43;;;12.20;99.90;14.90;97529.00;;;;5451375;26;20287;-82
2024/04/14 00:20:23;;;;;;;8.93;4.37;;;12.20;99.90;14.80;97534.00;;;;5440670;26;20311;-81
2024/04/14 00:23:10;;;;;;;8.20;4.80;;;12.20;99.90;14.80;97521.00;;;;5440267;26;20291;-81
2024/04/14 00:26:01;;;;;;;7.13;3.13;;;12.20;99.90;15.00;97520.00;;;;5434389;26;20996;-81
2024/04/14 00:28:52;;;;;;;16.03;6.37;;;12.20;99.90;14.80;97526.00;;;;5447190;26;20300;-81
2024/04/14 00:31:43;;;;;;;11.87;4.57;;;12.20;99.90;14.40;97517.00;;;;5449898;26;20236;-82
2024/04/14 00:34:33;;;;;;;10.67;4.43;;;12.10;99.90;14.40;97511.00;;;;5453668;26;20225;-81
2024/04/14 00:37:21;;;;;;;13.83;5.60;;;12.10;99.90;14.70;97509.00;;;;5456422;26;20292;-82
2024/04/14 00:40:13;;;;;;;8.93;3.90;;;12.00;99.90;14.90;97519.00;;;;5448749;26;20284;-82
2024/04/14 00:43:01;;;;;;;9.23;4.03;;;12.00;99.90;14.60;97522.00;;;;5443080;26;20233;-82
2024/04/14 00:45:54;;;;;;;14.93;6.40;;;12.00;99.90;14.60;97505.00;;;;5451215;26;20241;-82
2024/04/14 00:48:43;;;;;;;16.17;6.87;;;12.00;99.90;14.60;97510.00;;;;5451828;26;20238;-82
2024/04/14 00:51:35;;;;;;;9.90;4.37;;;11.90;99.90;14.60;97515.00;;;;5453490;26;20269;-81
2024/04/14 00:54:24;;;;;;;11.73;4.47;;;11.90;99.90;14.40;97503.00;;;;5445923;26;20645;-82
2024/04/14 00:57:15;;;;;;;14.27;5.43;;;11.90;99.90;14.70;97514.00;;;;5451283;26;20311;-81
2024/04/14 01:00:05;;;;;;;6.90;2.80;;;11.90;99.90;14.40;97502.00;;;;5449680;26;20287;-82
2024/04/14 01:02:59;;;;;;;7.20;2.90;;;11.80;99.90;13.90;97500.00;;;;5450015;26;20233;-82
2024/04/14 01:05:47;;;;;;;9.90;4.00;;;11.80;99.90;14.20;97500.00;;;;5450404;26;20304;-81
2024/04/14 01:08:38;;;;;;;13.80;5.63;;;11.70;99.90;14.00;97499.00;;;;5462061;26;20284;-81
2024/04/14 01:11:27;;;;;;;8.03;3.23;;;11.70;99.90;13.90;97494.00;;;;5465865;26;20236;-80
2024/04/14 01:14:20;;;;;;;11.30;4.80;;;11.50;99.90;13.70;97482.00;;;;5464955;26;20229;-80
2024/04/14 01:17:08;;;;;;;13.53;5.70;;;11.50;99.90;14.00;97478.00;;;;5467813;26;20228;-80
2024/04/14 01:20:01;;;;;;;5.13;2.83;;;11.40;99.90;14.20;97485.00;;;;5452136;26;20276;-80
2024/04/14 01:22:53;;;;;;;14.73;5.73;;;11.40;99.90;13.70;97476.00;;;;5465561;26;20271;-82
2024/04/14 01:25:45;;;;;;;12.17;4.57;;;11.40;99.90;13.90;97484.00;;;;5454941;26;20303;-82
2024/04/14 01:28:36;;;;;;;9.43;3.60;;;11.40;99.90;14.10;97489.00;;;;5452641;26;20592;-82
2024/04/14 01:31:24;;;;;;;6.50;2.70;;;11.30;99.90;13.90;97482.00;;;;5453347;26;20307;-81
2024/04/14 01:34:17;;;;;;;5.37;2.97;;;11.30;99.90;13.50;97487.00;;;;5454183;26;20236;-80
2024/04/14 01:37:05;;;;;;;9.10;3.57;;;11.30;99.90;13.60;97473.00;;;;5453672;26;20236;-82
2024/04/14 01:39:55;;;;;;;8.53;3.50;;;11.20;99.90;13.60;97475.00;;;;5443671;26;20244;-82
2024/04/14 01:42:46;;;;;;;17.23;6.47;;;11.10;99.90;13.30;97475.00;;;;5450518;26;20245;-82
2024/04/14 01:45:37;;;;;;;9.17;4.30;;;11.00;99.90;13.30;97474.00;;;;5452708;26;20305;-81
2024/04/14 01:48:25;;;;;;;8.90;5.03;;;10.90;99.90;13.50;97481.00;;;;5451265;26;20233;-81
2024/04/14 01:51:16;;;;;;;9.97;5.10;;;10.90;99.90;13.40;97479.00;;;;5447052;26;20320;-82
2024/04/14 01:54:04;;;;;;;7.13;3.43;;;10.90;99.90;13.50;97487.00;;;;5455167;26;20341;-85
2024/04/14 01:56:55;;;;;;;7.47;3.23;;;10.90;99.90;13.50;97482.00;;;;5456227;26;20286;-85
2024/04/14 01:59:45;;;;;;;16.87;6.23;;;10.90;99.90;13.20;97479.00;;;;5452203;26;20237;-83
2024/04/14 02:02:36;;;;;;;6.63;2.83;;;10.80;99.90;13.10;97475.00;;;;5452354;26;20280;-84
2024/04/14 02:05:24;;;;;;;9.00;3.83;;;10.80;99.90;13.30;97473.00;;;;5449209;26;20296;-84
2024/04/14 02:08:14;;;;;;;8.87;3.57;;;10.80;99.90;12.60;97470.00;;;;5453312;26;20236;-85
2024/04/14 02:11:03;;;;;;;4.57;2.00;;;10.60;99.90;12.70;97467.00;;;;5452394;26;20276;-84
2024/04/14 02:13:54;;;;;;;7.90;3.27;;;10.50;99.90;12.80;97473.00;;;;5448743;26;20313;-84
2024/04/14 02:16:44;;;;;;;16.27;6.17;;;10.50;99.90;13.10;97470.00;;;;5452765;26;20271;-85
2024/04/14 02:19:35;;;;;;;8.47;3.27;;;10.50;99.90;13.10;97470.00;;;;5446847;26;20232;-85
2024/04/14 02:22:23;;;;;;;6.47;2.73;;;10.50;99.90;12.80;97472.00;;;;5450731;26;20373;-84
2024/04/14 02:25:14;;;;;;;8.53;3.23;;;10.50;99.90;13.20;97472.00;;;;5444678;26;20308;-84
2024/04/14 02:28:03;;;;;;;11.43;4.33;;;10.50;99.90;12.90;97471.00;;;;5448641;26;20288;-84
2024/04/14 02:30:54;;;;;;;12.10;4.63;;;10.50;99.90;12.40;97464.00;;;;5449282;26;20252;-85
2024/04/14 02:33:47;;;;;;;14.43;5.20;;;10.40;99.90;12.40;97460.00;;;;5451034;26;20241;-84
2024/04/14 02:36:38;;;;;;;9.83;3.60;;;10.20;99.90;12.30;97452.00;;;;5449761;26;20332;-84
2024/04/14 02:39:26;;;;;;;10.93;4.13;;;10.10;99.90;11.60;97451.00;;;;5442820;26;20292;-84
2024/04/14 02:42:16;;;;;;;8.50;3.87;;;9.90;99.90;11.20;97454.00;;;;5449752;26;20291;-84
2024/04/14 02:45:05;;;;;;;7.07;3.03;;;9.70;99.90;11.90;97459.00;;;;5450649;26;20297;-81
2024/04/14 02:47:56;;;;;;;7.30;2.80;;;9.60;99.90;12.10;97448.00;;;;5447221;26;20509;-81
2024/04/14 02:50:47;;;;;;;12.23;4.63;;;9.70;99.90;12.10;97454.00;;;;5441850;26;20245;-81
2024/04/14 02:53:37;;;;;;;10.53;3.97;;;9.70;99.90;12.60;97448.00;;;;5448500;26;20285;-82
2024/04/14 02:56:25;;;;;;;7.67;3.87;;;9.80;99.90;12.80;97442.00;;;;5451967;26;20237;-81
2024/04/14 02:59:16;;;;;;;6.10;2.67;;;10.00;99.90;12.90;97453.00;;;;5449568;26;20237;-81
2024/04/14 03:02:05;;;;;;;7.07;2.87;;;10.10;99.90;12.00;97444.00;;;;5441061;26;20237;-82
2024/04/14 03:04:56;;;;;;;8.47;3.60;;;10.00;99.90;12.00;97440.00;;;;5445364;26;20297;-82
2024/04/14 03:07:46;;;;;;;18.90;6.83;;;9.90;99.90;11.50;97434.00;;;;5447415;26;20229;-82
2024/04/14 03:10:37;;;;;;;9.97;3.87;;;9.70;99.90;11.40;97440.00;;;;5448025;26;20233;-82
2024/04/14 03:13:26;;;;;;;8.10;3.30;;;9.60;99.90;11.70;97447.00;;;;5453230;26;20236;-82
2024/04/14 03:16:16;;;;;;;8.03;3.20;;;9.50;99.90;12.00;97434.00;;;;5444651;26;20791;-81
2024/04/14 03:19:05;;;;;;;8.93;4.03;;;9.50;99.90;12.50;97424.00;;;;5454264;26;20667;-82
2024/04/14 03:21:55;;;;;;;9.90;3.97;;;9.70;99.90;12.00;97420.00;;;;5452061;26;20271;-82
2024/04/14 03:24:46;;;;;;;11.83;4.50;;;9.70;99.90;11.90;97419.00;;;;5451349;26;20240;-82
2024/04/14 03:27:37;;;;;;;14.77;5.43;;;9.70;99.90;11.30;97412.00;;;;5447756;26;20287;-82
2024/04/14 03:30:27;;;;;;;7.67;3.20;;;9.50;99.90;11.80;97417.00;;;;5453471;26;20316;-82
2024/04/14 03:33:15;;;;;;;8.90;3.47;;;9.50;99.90;12.20;97424.00;;;;5456168;26;20237;-82
2024/04/14 03:36:09;;;;;;;9.60;3.83;;;9.50;99.90;11.30;97402.00;;;;5452482;26;20304;-82
2024/04/14 03:38:59;;;;;;;6.97;3.03;;;9.40;99.90;11.70;97408.00;;;;5439613;26;20249;-84
2024/04/14 03:41:53;;;;;;;15.20;5.90;;;9.30;99.90;12.10;97402.00;;;;5451062;26;20659;-84
2024/04/14 03:44:43;;;;;;;11.53;5.23;;;9.40;99.90;12.10;97418.00;;;;5451644;26;20278;-83
2024/04/14 03:47:35;;;;;;;12.80;5.67;;;9.30;99.90;11.60;97412.00;;;;5450923;26;20287;-85
2024/04/14 03:50:26;;;;;;;10.53;5.10;;;9.30;99.90;10.70;97403.00;;;;5447069;26;20296;-84
2024/04/14 03:53:14;;;;;;;9.37;4.60;;;9.10;99.90;11.40;97414.00;;;;5450110;26;20283;-85
2024/04/14 03:56:05;;;;;;;9.40;4.77;;;9.10;99.90;12.00;97405.00;;;;5453972;26;20751;-84
2024/04/14 03:58:55;;;;;;;9.20;4.10;;;9.20;99.90;11.50;97406.00;;;;5460167;26;20233;-84
2024/04/14 04:01:46;;;;;;;16.67;7.30;;;9.20;99.90;11.90;97403.00;;;;5449867;26;20276;-84
2024/04/14 04:04:34;;;;;;;10.83;5.20;;;9.20;99.90;11.60;97404.00;;;;5445699;26;20240;-83
2024/04/14 04:07:25;;;;;;;14.67;6.60;;;9.30;99.90;11.90;97405.00;;;;5449757;26;20233;-84
2024/04/14 04:10:13;;;;;;;12.13;7.63;;;9.40;99.90;10.40;97405.00;;;;5437111;26;20236;-83
2024/04/14 04:13:04;;;;;;;12.27;6.47;;;9.20;99.90;10.90;97399.00;;;;5445904;26;20233;-84
2024/04/14 04:15:57;;;;;;;16.67;7.80;;;8.20;99.90;11.50;97413.00;;;;5439355;26;20297;-89
2024/04/14 04:18:48;;;;;;;18.07;7.27;;;9.00;99.90;11.40;97411.00;;;;5449541;26;20305;-81
2024/04/14 04:21:36;;;;;;;13.53;6.50;;;9.00;99.90;10.70;97407.00;;;;5447347;26;20296;-82
2024/04/14 04:24:27;;;;;;;17.80;7.83;;;8.90;99.90;10.50;97395.00;;;;5442911;26;20285;-83
2024/04/14 04:27:15;;;;;;;20.83;9.40;;;8.80;99.90;10.50;97390.00;;;;5447038;26;20236;-84
2024/04/14 04:30:07;;;;;;;10.30;8.43;;;8.60;99.90;11.00;97397.00;;;;5440038;26;20240;-83
2024/04/14 04:32:57;;;;;;;9.30;8.43;;;8.70;99.90;10.40;97402.00;;;;5446567;26;20233;-86
2024/04/14 04:35:55;;;;;;;20.07;11.83;;;8.60;99.90;10.70;97396.00;;;;5451977;26;20283;-82
2024/04/14 04:38:44;;;;;;;19.33;8.40;;;8.70;99.90;10.80;97399.00;;;;5449518;26;20646;-83
2024/04/14 04:41:34;;;;;;;5.80;4.53;;;8.70;99.90;11.40;97412.00;;;;5451388;26;20287;-83
2024/04/14 04:44:22;;;;;;;15.83;9.37;;;8.80;99.90;11.50;97401.00;;;;5450304;26;20274;-83
2024/04/14 04:47:13;;;;;;;20.20;10.70;;;8.90;99.90;11.40;97399.00;;;;5442829;26;20233;-85
2024/04/14 04:50:09;;;;;;;10.03;6.03;;;8.90;99.90;11.50;97401.00;;;;5448172;26;20240;-85
2024/04/14 04:52:57;;;;;;;10.97;8.00;;;9.00;99.90;12.20;97416.00;;;;5450802;26;20725;-82
2024/04/14 04:55:47;;;;;;;23.37;16.70;;;9.20;99.90;12.20;97401.00;;;;5450459;26;20286;-81
2024/04/14 04:58:35;;;;;;;13.40;9.93;;;9.40;99.90;12.00;97392.00;;;;5458488;26;20275;-82
2024/04/14 05:01:26;;;;;;;12.80;8.23;;;9.40;99.90;12.00;97386.00;;;;5445001;26;20244;-81
2024/04/14 05:04:14;;;;;;;9.57;7.23;;;9.50;99.90;11.80;97404.00;;;;5437954;26;20340;-83
2024/04/14 05:07:08;;;;;;;8.70;5.00;;;9.50;99.90;11.00;97387.00;;;;5448031;26;20755;-82
2024/04/14 05:09:56;;;;;;;8.30;4.53;;;9.30;99.90;11.10;97387.00;;;;5466580;21;20272;-85
2024/04/14 05:12:47;;;;;;;9.63;6.47;;;9.20;99.90;10.60;97382.00;;;;5452654;26;20334;-86
2024/04/14 05:15:35;;;;;;;11.27;5.70;;;9.00;99.90;11.20;97396.00;;;;5455130;26;20308;-86
2024/04/14 05:18:25;;;;;;;6.47;3.27;;;9.10;99.90;11.30;97395.00;;;;5458158;26;20284;-85
2024/04/14 05:21:16;;;;;;;9.97;5.07;;;9.10;99.90;11.60;97397.00;;;;5445406;26;20248;-86
2024/04/14 05:24:07;;;;;;;7.80;4.27;;;9.20;99.90;12.10;97401.00;;;;5444277;26;20398;-85
2024/04/14 05:26:58;;;;;;;8.47;4.37;;;9.40;99.90;11.90;97401.00;;;;5441933;26;20630;-86
2024/04/14 05:29:46;;;;;;;18.97;8.40;;;9.50;99.90;11.70;97395.00;;;;5453733;26;20285;-85
2024/04/14 05:32:36;;;;;;;10.43;4.90;;;9.60;99.90;11.50;97392.00;;;;5454583;26;20277;-86
2024/04/14 05:35:26;;;;;;;8.97;5.27;;;9.60;99.90;11.80;97387.00;;;;5449851;26;20232;-86
2024/04/14 05:38:17;;;;;;;8.63;3.80;;;9.70;99.90;11.90;97389.00;;;;5456155;26;20237;-85
2024/04/14 05:41:10;;;;;;;10.83;5.13;;;9.80;99.90;12.60;97400.00;;;;5456756;26;20233;-85
2024/04/14 05:43:58;;;;;;;6.77;3.30;;;9.90;99.90;12.30;97392.00;;;;5456074;26;20278;-86
2024/04/14 05:46:48;;;;;;;11.50;5.13;;;10.00;99.90;11.90;97390.00;;;;5453124;26;20240;-86
2024/04/14 05:49:36;;;;;;;9.97;4.50;;;10.00;99.90;12.30;97384.00;;;;5454553;26;20296;-87
2024/04/14 05:52:27;;;;;;;8.90;4.30;;;10.10;99.90;12.90;97390.00;;;;5453559;26;20282;-84
2024/04/14 05:55:15;;;;;;;9.00;4.10;;;10.30;99.90;13.60;97396.00;;;;5444944;26;20350;-86
2024/04/14 05:58:09;;;;;;;7.97;3.73;;;10.50;99.90;12.90;97387.00;;;;5455620;26;20301;-86
2024/04/14 06:00:57;;;;;;;10.40;4.93;;;10.70;99.90;13.90;97387.00;;;;5454225;26;20292;-85
2024/04/14 06:03:49;;;;;;;16.13;7.27;;;10.90;99.90;13.80;97391.00;;;;5456232;26;20248;-86
2024/04/14 06:06:37;;;;;;;14.67;6.60;;;11.10;99.90;14.00;97383.00;;;;5444462;26;20240;-85
2024/04/14 06:09:28;;;;;;;11.37;6.13;;;11.30;99.90;13.60;97373.00;;;;5463906;26;20243;-86
2024/04/14 06:12:16;;;;;;;10.23;5.77;;;11.50;99.90;13.80;97376.00;;;;5488345;26;20239;-86
2024/04/14 06:15:10;;;;;;;9.27;5.57;;;11.60;99.90;13.70;97377.00;;;;5481465;26;20791;-86
2024/04/14 06:17:58;;;;;;;10.47;7.27;;;11.60;99.90;14.10;97377.00;;;;5483476;26;20295;-84
2024/04/14 06:20:48;;;;;;;24.20;11.20;;;11.70;99.90;14.20;97361.00;;;;5487386;26;20783;-86
2024/04/14 06:23:37;;;;;;;12.77;8.23;;;11.80;99.90;14.60;97371.00;;;;5484869;26;20295;-86
2024/04/14 06:26:28;;;;;;;11.03;8.63;;;12.00;99.90;14.70;97364.00;;;;5484036;26;20227;-85
2024/04/14 06:29:16;;;;;;;14.80;8.60;;;12.10;99.90;15.40;97362.00;;;;5482146;26;20287;-85
2024/04/14 06:32:10;;;;;;;12.43;9.03;;;12.40;99.90;15.60;97359.00;;;;5484973;26;20295;-86
2024/04/14 06:34:58;;;;;;;12.60;10.90;;;12.60;99.90;15.80;97357.00;;;;5487829;26;20251;-86
2024/04/14 06:37:49;;;;;;;23.23;16.57;;;12.80;99.90;16.00;97354.00;;;;5479389;26;20295;-86
2024/04/14 06:40:41;;;;;;;21.80;19.37;;;13.00;99.90;16.30;97359.00;;;;5476612;26;20235;-85
2024/04/14 06:43:29;;;;;;;24.47;22.63;;;13.30;99.90;17.00;97354.00;;;;5477631;26;20287;-84
2024/04/14 06:46:20;;;;;;;32.50;30.53;;;13.60;99.90;17.40;97346.00;;;;5480849;26;20795;-84
2024/04/14 06:49:10;;;;;;;40.27;37.30;;;13.90;99.90;17.60;97361.00;;;;5479855;26;20624;-83
2024/04/14 06:52:01;;;;;;;52.83;49.70;;;14.20;99.90;17.60;97355.00;;;;5482295;26;20303;-84
2024/04/14 06:54:50;;;;;;;105.07;97.70;;;;;18.20;97352.00;;;;5482160;26;20311;-84
2024/04/14 06:57:40;;;;;;;215.93;192.23;;;14.80;99.90;18.80;97350.00;;;;5477083;26;20294;-82
2024/04/14 07:00:28;;;;;;;190.67;172.60;;;15.20;99.90;18.90;97349.00;;;;5472140;26;20270;-84
2024/04/14 07:03:19;;;;;;;159.00;145.93;;;15.50;99.90;19.30;97345.00;;;;5473553;26;20228;-84
2024/04/14 07:06:10;;;;;;;78.90;74.57;;;15.70;99.90;18.80;97344.00;;;;5480125;26;20285;-84
2024/04/14 07:09:01;;;;;;;76.77;72.53;;;16.00;99.90;19.50;97343.00;;;;5480309;26;20236;-84
2024/04/14 07:11:49;;;;;;;75.23;69.77;;;16.20;99.90;20.30;97335.00;;;;5480154;26;20308;-84
2024/04/14 07:14:39;;;;;;;66.53;63.00;;;16.60;99.90;20.20;97335.00;;;;5474403;26;20239;-84
2024/04/14 07:17:28;;;;;;;82.97;79.37;;;16.90;99.90;20.40;97335.00;;;;5464502;26;20628;-84
2024/04/14 07:20:20;;;;;;;88.43;84.03;;;17.10;99.90;21.00;97326.00;;;;5470002;26;20275;-85
2024/04/14 07:23:11;;;;;;;113.57;106.90;;;17.30;99.90;21.10;97329.00;;;;5475503;26;20287;-84
2024/04/14 07:26:01;;;;;;;118.57;112.87;;;17.50;99.90;20.80;97321.00;;;;5476890;26;20299;-84
2024/04/14 07:28:50;;;;;;;131.27;123.83;;;17.70;99.90;20.70;97319.00;;;;5480782;26;20311;-84
2024/04/14 07:31:41;;;;;;;132.23;125.53;;;17.80;99.30;20.80;97323.00;;;;5482003;26;20794;-83
2024/04/14 07:34:29;;;;;;;124.13;117.70;;;17.90;98.70;21.40;97319.00;;;;5479247;26;20239;-83
2024/04/14 07:37:19;;;;;;;119.90;113.57;;;18.10;98.30;21.60;97326.00;;;;5475039;26;20232;-84
2024/04/14 07:40:10;;;;;;;133.93;127.43;;;18.40;97.60;21.70;97323.00;;;;5475298;26;20235;-84
2024/04/14 07:43:02;;;;;;;167.13;158.43;;;18.50;96.30;21.90;97314.00;;;;5474276;26;20236;-84
2024/04/14 07:45:50;;;;;;;191.50;180.77;;;18.80;96.50;21.90;97319.00;;;;5472613;26;20277;-84
2024/04/14 07:48:41;;;;;;;187.97;178.83;;;18.80;95.20;22.20;97311.00;;;;5477558;26;20244;-83
2024/04/14 07:51:29;;;;;;;184.70;175.43;;;19.00;95.20;22.10;97303.00;;;;5481571;26;20307;-84
2024/04/14 07:54:20;;;;;;;184.33;174.40;;;19.10;95.20;22.10;97306.00;;;;5477858;26;20616;-84
2024/04/14 07:57:11;;;;;;;193.40;183.37;;;19.20;94.50;22.50;97304.00;;;;5479724;26;20280;-84
2024/04/14 08:00:02;;;;;;;201.60;191.57;;;19.30;94.40;22.50;97313.00;;;;5476033;26;20300;-84
2024/04/14 08:02:50;;;;;;;215.80;204.33;;;19.50;93.60;22.60;97302.00;;;;5463163;26;20292;-84
2024/04/14 08:05:40;;;;;;;242.30;229.30;;;19.60;93.70;23.00;97296.00;;;;5472400;26;20240;-84
2024/04/14 08:08:28;;;;;;;272.67;257.60;;;19.70;93.30;23.60;97300.00;;;;5469534;26;20237;-83
2024/04/14 08:11:19;;;;;;;315.00;296.20;;;20.20;92.70;23.10;97295.00;;;;5474519;26;20672;-83
2024/04/14 08:14:10;;;;;;;345.27;322.97;;;20.20;91.80;23.40;97295.00;;;;5472582;26;21026;-83
2024/04/14 08:17:01;;;;;;;332.53;311.63;;;20.50;91.60;23.90;97293.00;;;;5471009;26;20274;-85
2024/04/14 08:19:49;;;;;;;355.90;332.73;;;20.50;91.00;23.70;97290.00;;;;5469221;26;20270;-84
2024/04/14 08:22:41;;;;;;;363.43;339.60;;;20.70;91.10;24.50;97291.00;;;;5472094;26;20775;-85
2024/04/14 08:25:29;;;;;;;374.77;349.83;;;20.90;91.10;24.40;97282.00;;;;5469509;26;20759;-86
2024/04/14 08:28:20;;;;;;;388.63;362.63;;;21.20;88.70;24.50;97288.00;;;;5468266;26;20255;-85
2024/04/14 08:31:11;;;;;;;382.73;357.93;;;21.30;88.70;24.70;97281.00;;;;5468698;26;20305;-85
2024/04/14 08:34:01;;;;;;;389.07;364.13;;;21.50;89.80;25.10;97279.00;;;;5472869;26;20240;-85
2024/04/14 08:36:51;;;;;;;405.30;377.87;;;21.70;87.90;25.30;97273.00;;;;5475802;26;20255;-84
2024/04/14 08:39:41;;;;;;;408.03;381.27;;;21.90;86.90;26.10;97272.00;;;;5473773;26;20995;-84
2024/04/14 08:42:29;;;;;;;428.20;400.37;;;22.20;86.40;25.50;97274.00;;;;5470763;26;20344;-85
2024/04/14 08:45:24;;;;;;;429.37;400.73;;;22.30;83.80;25.90;97256.00;;;;5464610;26;20295;-84
2024/04/14 08:48:17;;;;;;;456.67;425.07;;;22.60;85.40;26.80;97263.00;;;;5476762;26;20240;-84
2024/04/14 08:51:08;;;;;;;469.87;428.53;;;22.90;85.90;27.30;97267.00;;;;5475156;26;20307;-85
2024/04/14 08:54:00;;;;;;;490.13;446.40;;;23.20;83.50;27.40;97257.00;;;;5470898;26;20378;-85
2024/04/14 08:56:56;;;;;;;493.97;452.93;;;23.50;83.50;27.30;97256.00;;;;5474626;26;20637;-84
2024/04/14 08:59:48;;;;;;;422.80;399.17;;;23.70;82.50;27.90;97264.00;;;;5472827;26;20324;-86
2024/04/14 09:02:39;;;;;;;418.23;396.63;;;24.00;80.20;28.30;97246.00;;;;5471914;26;20289;-86
2024/04/14 09:05:37;;;;;;;402.17;382.83;;;24.20;78.80;28.40;97253.00;;;;5477371;26;20238;-86
2024/04/14 09:08:25;;;;;;;441.17;417.50;;;24.50;77.70;28.60;97243.00;;;;5475716;26;20241;-85
2024/04/14 09:11:15;;;;;;;461.07;436.47;;;24.70;77.10;28.80;97243.00;;;;5474002;26;20289;-85
2024/04/14 09:14:04;;;;;;;474.63;449.60;;;24.90;75.20;29.20;97253.00;;;;5478833;26;22177;-85
2024/04/14 09:16:54;;;;;;;475.13;448.97;;;25.10;74.40;29.00;97255.00;;;;5479015;26;20926;-85
2024/04/14 09:19:44;;;;;;;510.00;479.87;;;25.30;74.40;29.20;97259.00;;;;5475523;26;20325;-84
2024/04/14 09:22:39;;;;;;;514.40;484.87;;;25.40;72.50;29.50;97253.00;;;;5480667;26;20842;-86
2024/04/14 09:25:27;;;;;;;521.83;492.50;;;25.60;70.50;30.10;97247.00;;;;5475899;26;20282;-85
2024/04/14 09:28:19;;;;;;;556.23;521.57;;;25.90;71.10;30.40;97248.00;;;;5474837;26;20358;-86
2024/04/14 09:31:07;;;;;;;565.27;528.73;;;26.20;70.70;30.80;97238.00;;;;5475585;26;20293;-86
2024/04/14 09:33:58;;;;;;;592.50;550.13;;;26.50;70.20;30.90;97238.00;;;;5473278;26;20646;-85
2024/04/14 09:36:48;;;;;;;605.93;561.60;;;26.70;69.40;31.20;97234.00;;;;5476127;26;20624;-86
2024/04/14 09:39:43;;;;;;;616.80;571.07;;;27.00;68.50;31.40;97231.00;;;;5478486;26;20277;-84
2024/04/14 09:42:32;;;;;;;608.73;558.50;;;27.20;67.20;31.40;97231.00;;;;5476814;26;20306;-85
2024/04/14 09:45:23;;;;;;;613.33;571.27;;;27.40;64.80;31.80;97225.00;;;;5471832;26;20288;-85
2024/04/14 09:48:16;;;;;;;616.77;573.53;;;27.60;62.90;31.70;97220.00;;;;5473478;26;20250;-84
2024/04/14 09:51:08;;;;;;;619.07;577.20;;;27.70;59.10;31.60;97215.00;;;;5472982;26;20354;-85
2024/04/14 09:53:58;;;;;;;619.40;579.47;;;27.90;58.10;32.10;97210.00;;;;5477593;26;20241;-85
2024/04/14 09:56:51;;;;;;;629.13;587.80;;;28.10;57.60;32.20;97211.00;;;;5474274;26;20258;-85
2024/04/14 09:59:39;;;;;;;627.03;588.83;;;28.30;56.80;32.60;97214.00;;;;5468779;26;20304;-86
2024/04/14 10:02:35;;;;;;;624.83;587.93;;;28.40;56.20;32.80;97215.00;;;;5468619;26;20610;-85
2024/04/14 10:05:25;;;;;;;635.03;597.60;;;28.60;54.80;32.10;97200.00;;;;5464955;26;20286;-84
2024/04/14 10:08:17;;;;;;;644.77;606.03;;;28.70;53.20;32.70;97193.00;;;;5468838;26;20295;-85
2024/04/14 10:11:06;;;;;;;629.03;592.07;;;28.80;52.50;33.20;97191.00;;;;5464854;26;20726;-86
2024/04/14 10:14:00;;;;;;;648.33;609.43;;;29.00;49.60;33.50;97187.00;;;;5468784;26;20866;-85
2024/04/14 10:16:54;;;;;;;659.80;619.63;;;29.30;50.40;33.70;97189.00;;;;5473815;26;20291;-86
2024/04/14 10:19:57;;;;;;;676.15;631.70;;;;;34.00;97181.00;;;;5477690;26;20552;-85
2024/04/14 10:22:46;;;;;;;685.33;638.13;;;29.70;50.20;33.70;97177.00;;;;5477012;26;20940;-87
2024/04/14 10:25:47;;;;;;;684.50;633.67;;;29.80;46.90;33.10;97179.00;;;;5476249;26;20320;-84
2024/04/14 10:28:35;;;;;;;685.37;633.97;;;29.70;47.80;33.80;97178.00;;;;5478440;26;20240;-86
2024/04/14 10:31:34;;;;;;;678.25;635.15;;;;;34.10;97166.00;;;;5472916;26;20279;-86
2024/04/14 10:34:23;;;;;;;684.05;640.17;;;;;34.30;97173.00;;;;5465240;26;20642;-86
2024/04/14 10:37:25;;;;;;;700.65;648.42;;;;;34.10;97159.00;;;;5467876;26;20295;-86
2024/04/14 10:40:13;;;;;;;700.15;647.70;;;;;33.10;97166.00;;;;5464889;26;20228;-85
2024/04/14 10:43:05;;;;;;;701.92;649.53;;;;;34.10;97152.00;;;;5463756;26;20907;-86
2024/04/14 10:46:00;;;;;;;684.70;640.67;;;;;34.90;97141.00;;;;5469760;26;20338;-86
2024/04/14 10:48:52;;;;;;;593.15;562.40;;;;;35.30;97154.00;;;;5467853;26;20251;-85
2024/04/14 10:51:43;;;;;;;587.92;558.88;;;;;35.80;97143.00;;;;5469310;26;20236;-86
2024/04/14 10:54:31;;;;;;;595.22;565.55;;;;;35.80;97154.00;;;;5465844;26;20280;-86
2024/04/14 10:57:22;;;;;;;586.63;557.85;;;;;34.50;97141.00;;;;5457784;26;20243;-86
2024/04/14 11:00:11;;;;;;;590.95;562.65;;;;;35.70;97134.00;;;;5469720;26;20421;-86
2024/04/14 11:03:02;;;;;;;638.08;605.42;;;;;35.80;97136.00;;;;5458190;26;20244;-86
2024/04/14 11:05:54;;;;;;;667.35;632.45;;;;;36.40;97133.00;;;;5455731;26;20307;-85
2024/04/14 11:08:45;;;;;;;635.78;604.00;;;;;36.50;97134.00;;;;5465381;26;20286;-86
2024/04/14 11:11:34;;;;;;;640.70;608.85;;;;;36.30;97125.00;;;;5454704;26;21160;-86
2024/04/14 11:14:25;;;;;;;576.28;549.20;;;;;36.40;97130.00;;;;5469923;26;20278;-86
2024/04/14 11:17:13;;;;;;;667.08;632.60;;;;;36.50;97121.00;;;;5461022;26;20325;-86
2024/04/14 11:20:05;;;;;;;649.30;617.60;;;;;34.60;97114.00;;;;5472824;26;20382;-87
2024/04/14 11:23:01;;;;;;;599.63;570.80;;;;;36.50;97117.00;;;;5465409;26;20802;-86
2024/04/14 11:25:52;;;;;;;577.08;549.45;;;;;37.10;97104.00;;;;5470897;26;20295;-87
2024/04/14 11:28:40;;;;;;;609.28;580.58;;;;;37.80;97109.00;;;;5464756;26;20303;-88
2024/04/14 11:31:31;;;;;;;673.10;639.63;;;;;38.00;97105.00;;;;5476900;26;20307;-87
2024/04/14 11:34:19;;;;;;;731.38;691.85;;;;;37.30;97098.00;;;;5468850;26;20249;-88
2024/04/14 11:37:10;;;;;;;700.42;664.80;;;;;37.80;97094.00;;;;5462730;26;20772;-87
2024/04/14 11:40:02;;;;;;;660.55;627.65;;;;;37.50;97083.00;;;;5464941;26;20303;-87
2024/04/14 11:42:53;;;;;;;614.08;584.47;;;;;36.30;97082.00;;;;5470628;26;20308;-89
2024/04/14 11:45:48;;;;;;;608.67;580.53;;;;;36.90;97076.00;;;;5472343;26;20299;-88
2024/04/14 11:48:39;;;;;;;619.90;590.85;;;;;34.80;97064.00;;;;5464915;26;20306;-87
2024/04/14 11:51:27;;;;;;;642.10;611.25;;;;;37.10;97055.00;;;;5464890;26;20233;-87
2024/04/14 11:54:18;;;;;;;622.10;593.17;;;;;38.40;97061.00;;;;5467784;26;20236;-87
2024/04/14 11:57:09;;;;;;;676.25;642.85;;;;;38.40;97061.00;;;;5471101;26;20228;-89
2024/04/14 12:00:00;;;;;;;760.17;719.28;;;;;37.90;97054.00;;;;5477138;26;20230;-87
2024/04/14 12:02:51;;;;;;;772.77;730.57;;;;;38.90;97040.00;;;;5476611;26;20576;-88
2024/04/14 12:05:39;;;;;;;806.50;761.67;;;;;37.90;97047.00;;;;5476357;26;20232;-88
2024/04/14 12:08:30;;;;;;;815.70;770.38;;;;;37.20;97049.00;;;;5477121;26;20231;-87
2024/04/14 12:11:19;;;;;;;813.15;767.83;;;;;39.10;97036.00;;;;5476141;26;20281;-89
2024/04/14 12:14:13;;;;;;;851.35;801.72;;;;;38.80;97052.00;;;;5476078;26;20219;-88
2024/04/14 12:17:01;;;;;;;860.35;808.65;;;;;39.50;97035.00;;;;5486122;26;20198;-88
2024/04/14 12:19:52;;;;;;;881.20;826.35;;;;;40.30;97035.00;;;;5476248;26;20228;-89
2024/04/14 12:22:41;;;;;;;880.13;823.42;;;;;40.40;97024.00;;;;5477428;26;20656;-88
2024/04/14 12:25:31;;;;;;;;;;;;;39.90;97027.00;;;;5474697;26;20066;-88
2024/04/14 12:28:19;;;;;;;;;;;;;40.30;97018.00;;;;5479762;26;19976;-88
2024/04/14 12:31:13;;;;;;;;;;;;;40.80;97031.00;;;;5481999;26;19986;-88
2024/04/14 12:34:01;;;;;;;;;;;;;40.90;97019.00;;;;5478738;26;20016;-89
2024/04/14 12:37:05;;;;;;;916.10;857.90;;;;;41.20;97009.00;;;;5472477;26;20016;-88